Time;durP1;ratioP1;P1;durP2;ratioP2;P2;SDS_P1;SDS_P2;PMS_P1;PMS_P2;Temp;Humidity;BMP_temperature;BMP_pressure;BME280_temperature;BME280_humidity;BME280_pressure;Samples;Min_cycle;Max_cycle;Signal;HPM_P1;HPM_P2
2021/03/03 00:00:58;;;;;;;34.50;20.58;;;;;;;1.71;79.01;101591.69;5055908;28;20119;-73
2021/03/03 00:03:23;;;;;;;39.08;21.23;;;;;;;1.83;79.80;101582.06;5073587;28;20059;-72
2021/03/03 00:05:49;;;;;;;34.42;21.05;;;;;;;1.91;78.73;101579.81;5055696;28;20032;-73
2021/03/03 00:08:15;;;;;;;30.70;18.67;;;;;;;1.77;79.49;101587.72;5073283;28;20024;-70
2021/03/03 00:10:47;;;;;;;32.10;18.77;;;;;;;1.92;78.95;101582.38;5073502;28;20421;-73
2021/03/03 00:13:28;;;;;;;31.98;17.98;;;;;;;2.07;78.00;101577.00;5073567;28;20032;-71
2021/03/03 00:15:59;;;;;;;30.98;19.23;;;;;;;1.63;79.51;101578.03;5073796;28;20082;-71
2021/03/03 00:18:36;;;;;;;33.22;18.98;;;;;;;1.90;79.01;101589.00;5073468;28;20028;-71
2021/03/03 00:21:10;;;;;;;33.28;19.33;;;;;;;2.00;79.54;101582.63;5055911;28;20033;-72
2021/03/03 00:23:49;;;;;;;32.72;19.35;;;;;;;2.01;78.35;101586.81;5073591;28;20031;-72
2021/03/03 00:26:18;;;;;;;34.90;18.65;;;;;;;1.81;80.01;101585.31;5055581;28;20028;-71
2021/03/03 00:28:49;;;;;;;31.90;19.20;;;;;;;2.24;78.39;101583.41;5055361;28;20457;-72
2021/03/03 00:31:21;;;;;;;35.58;20.55;;;;;;;2.05;79.19;101578.59;5073103;28;20112;-71
2021/03/03 00:33:51;;;;;;;35.17;20.80;;;;;;;2.00;79.02;101580.13;5071043;28;20033;-71
2021/03/03 00:36:22;;;;;;;36.92;20.55;;;;;;;1.87;79.99;101583.88;5055141;28;20097;-71
2021/03/03 00:38:47;;;;;;;35.90;20.17;;;;;;;1.95;79.70;101581.59;5073019;28;20032;-71
2021/03/03 00:41:14;;;;;;;36.28;21.83;;;;;;;1.88;79.79;101573.06;5073202;28;20547;-71
2021/03/03 00:43:45;;;;;;;37.28;20.83;;;;;;;1.94;79.72;101565.69;5072985;28;20035;-72
2021/03/03 00:46:11;;;;;;;77.72;39.85;;;;;;;1.92;78.57;101571.50;5072989;28;20047;-74
2021/03/03 00:48:37;;;;;;;44.90;24.80;;;;;;;1.94;80.19;101568.22;5055061;28;20486;-71
2021/03/03 00:51:10;;;;;;;45.90;24.73;;;;;;;2.05;79.04;101561.03;5072759;28;20028;-71
2021/03/03 00:53:36;;;;;;;44.33;24.55;;;;;;;2.02;78.21;101550.94;5072960;28;20029;-73
2021/03/03 00:56:03;;;;;;;41.15;23.38;;;;;;;1.73;77.94;101560.00;5073063;28;20037;-71
2021/03/03 00:58:31;;;;;;;36.70;21.13;;;;;;;1.47;78.39;101571.66;5072833;28;20021;-72
2021/03/03 01:00:58;;;;;;;36.67;21.55;;;;;;;1.60;77.56;101562.91;5072664;28;20047;-72
2021/03/03 01:03:24;;;;;;;39.92;23.55;;;;;;;1.51;77.96;101560.94;5054681;28;20032;-72
2021/03/03 01:06:00;;;;;;;39.55;22.80;;;;;;;1.32;78.95;101556.13;5054645;28;20516;-71
2021/03/03 01:08:28;;;;;;;41.20;24.10;;;;;;;1.22;79.59;101558.22;5072555;28;20032;-71
2021/03/03 01:11:00;;;;;;;42.55;23.42;;;;;;;1.18;79.28;101553.91;5072477;28;20040;-72
2021/03/03 01:13:26;;;;;;;37.95;22.08;;;;;;;1.17;80.71;101565.56;5072475;28;20025;-72
2021/03/03 01:15:54;;;;;;;37.13;21.45;;;;;;;1.38;79.31;101550.44;5072412;28;20764;-71
2021/03/03 01:18:29;;;;;;;41.28;22.30;;;;;;;1.21;79.96;101552.38;5072112;28;20052;-72
2021/03/03 01:20:56;;;;;;;43.80;22.40;;;;;;;1.47;78.65;101541.59;5053365;28;20025;-71
2021/03/03 01:23:29;;;;;;;41.45;23.58;;;;;;;1.81;77.68;101540.19;5054412;28;20021;-71
2021/03/03 01:25:57;;;;;;;41.83;23.40;;;;;;;1.28;79.66;101548.44;5054213;28;20029;-71
2021/03/03 01:28:27;;;;;;;40.08;23.60;;;;;;;1.12;81.59;101549.56;5072040;28;20035;-71
2021/03/03 01:31:09;;;;;;;37.13;21.30;;;;;;;1.20;80.11;101548.16;5072316;28;20029;-71
2021/03/03 01:33:34;;;;;;;32.90;19.20;;;;;;;1.31;80.08;101544.38;5054194;28;20422;-71
2021/03/03 01:36:02;;;;;;;34.50;19.33;;;;;;;1.34;79.84;101558.66;5071596;28;20051;-73
2021/03/03 01:38:28;;;;;;;35.25;19.88;;;;;;;1.42;79.69;101552.25;5054344;28;20028;-73
2021/03/03 01:41:02;;;;;;;35.58;19.42;;;;;;;1.14;81.14;101554.59;5071839;28;20493;-71
2021/03/03 01:43:40;;;;;;;34.08;19.10;;;;;;;1.59;79.25;101544.50;5072459;28;20116;-72
2021/03/03 01:46:15;;;;;;;32.95;18.55;;;;;;;1.37;79.63;101561.25;5071895;28;20034;-72
2021/03/03 01:48:44;;;;;;;30.55;17.77;;;;;;;1.49;80.25;101555.03;5054283;28;20032;-73
2021/03/03 01:51:17;;;;;;;33.42;18.63;;;;;;;1.66;78.88;101558.94;5054044;28;20097;-71
2021/03/03 01:53:45;;;;;;;30.17;18.25;;;;;;;1.74;79.13;101564.22;5072111;28;20043;-71
2021/03/03 01:56:15;;;;;;;34.60;19.23;;;;;;;1.83;79.40;101551.97;5054166;28;20119;-72
2021/03/03 01:58:43;;;;;;;39.63;21.20;;;;;;;1.57;78.87;101557.78;5053982;28;20075;-71
2021/03/03 02:01:09;;;;;;;37.72;21.17;;;;;;;1.36;80.94;101562.94;5071756;28;20043;-71
2021/03/03 02:03:38;;;;;;;37.45;21.00;;;;;;;1.50;79.78;101558.38;5054062;28;20028;-72
2021/03/03 02:06:33;;;;;;;35.00;20.67;;;;;;;1.43;79.00;101561.47;5071565;28;20017;-71
2021/03/03 02:09:02;;;;;;;36.83;19.73;;;;;;;1.55;79.78;101556.88;5053527;28;20032;-71
2021/03/03 02:11:38;;;;;;;43.08;22.45;;;;;;;1.35;80.60;101568.72;5053887;28;20713;-71
2021/03/03 02:14:32;;;;;;;38.97;21.58;;;;;;;1.45;80.24;101580.78;5053767;28;20064;-71
2021/03/03 02:17:09;;;;;;;34.78;19.48;;;;;;;1.46;79.94;101544.91;5053725;28;20032;-71
2021/03/03 02:19:59;;;;;;;33.63;19.00;;;;;;;1.55;79.90;101570.25;5053424;28;20059;-71
2021/03/03 02:22:48;;;;;;;36.03;19.73;;;;;;;1.48;80.43;101558.34;5053404;28;20044;-71
2021/03/03 02:25:31;;;;;;;35.92;20.90;;;;;;;1.34;80.55;101568.69;5071278;28;20029;-72
2021/03/03 02:28:03;;;;;;;39.38;21.17;;;;;;;1.23;81.73;101539.91;5053554;28;20547;-71
2021/03/03 02:30:30;;;;;;;39.70;20.95;;;;;;;1.10;82.34;101576.19;5071704;28;20032;-71
2021/03/03 02:33:07;;;;;;;41.53;22.42;;;;;;;1.05;82.30;101569.31;5059893;28;20139;-72
2021/03/03 02:35:33;;;;;;;39.00;22.02;;;;;;;1.35;82.12;101562.84;5059936;28;20102;-71
2021/03/03 02:38:13;;;;;;;41.40;21.27;;;;;;;1.38;82.64;101566.34;5060010;28;20624;-71
2021/03/03 02:40:44;;;;;;;37.13;19.50;;;;;;;1.56;82.20;101566.97;5059864;28;20054;-72
2021/03/03 02:43:17;;;;;;;35.05;19.73;;;;;;;1.76;81.63;101560.13;5060063;28;20036;-72
2021/03/03 02:45:46;;;;;;;33.67;18.92;;;;;;;1.76;81.69;101563.44;5060209;28;20119;-71
2021/03/03 02:48:23;;;;;;;35.42;19.02;;;;;;;1.75;81.08;101569.28;5078033;28;20452;-71
2021/03/03 02:50:55;;;;;;;37.13;18.55;;;;;;;1.51;80.90;101565.94;5077613;28;20466;-72
2021/03/03 02:53:22;;;;;;;34.03;19.70;;;;;;;1.60;80.64;101563.78;5060132;28;20562;-71
2021/03/03 02:55:57;;;;;;;42.42;22.05;;;;;;;1.63;80.12;101578.03;5059858;28;20027;-71
2021/03/03 02:58:22;;;;;;;39.55;23.20;;;;;;;1.11;80.69;101584.56;5059848;28;20028;-72
2021/03/03 03:00:53;;;;;;;40.40;23.42;;;;;;;1.40;79.87;101577.28;5077921;28;20524;-72
2021/03/03 03:03:59;;;;;;;40.55;23.17;;;;;;;1.17;80.65;101588.13;5059880;28;20028;-71
2021/03/03 03:06:44;;;;;;;45.55;24.48;;;;;;;0.70;79.46;101580.53;5078179;28;20085;-71
2021/03/03 03:09:39;;;;;;;47.42;26.02;;;;;;;0.64;80.77;101590.31;5059702;28;20028;-72
2021/03/03 03:12:20;;;;;;;45.58;24.88;;;;;;;0.96;79.89;101586.50;5059819;28;20028;-72
2021/03/03 03:14:49;;;;;;;39.72;23.33;;;;;;;0.40;80.64;101589.34;5077880;28;20021;-72
2021/03/03 03:17:27;;;;;;;40.80;22.98;;;;;;;0.90;79.29;101584.63;5077903;28;20036;-72
2021/03/03 03:19:58;;;;;;;37.22;22.02;;;;;;;0.81;79.70;101580.13;5059221;28;20036;-72
2021/03/03 03:22:33;;;;;;;42.60;24.38;;;;;;;0.85;79.70;101591.13;5077519;28;20103;-72
2021/03/03 03:25:03;;;;;;;41.63;26.77;;;;;;;0.79;80.17;101583.38;5077830;28;20472;-72
2021/03/03 03:27:36;;;;;;;41.70;25.33;;;;;;;0.75;81.13;101597.41;5077616;28;20107;-72
2021/03/03 03:30:02;;;;;;;38.30;22.92;;;;;;;0.79;81.63;101600.91;5059378;28;20123;-73
2021/03/03 03:32:29;;;;;;;37.22;22.88;;;;;;;0.53;82.11;101599.91;5059732;28;20533;-72
2021/03/03 03:34:55;;;;;;;33.90;20.77;;;;;;;0.33;83.24;101613.28;5055804;28;20087;-72
2021/03/03 03:37:24;;;;;;;34.13;20.20;;;;;;;0.80;82.31;101600.09;5057218;28;20045;-72
2021/03/03 03:39:54;;;;;;;37.70;21.13;;;;;;;0.69;81.78;101589.66;5056286;28;20032;-72
2021/03/03 03:42:23;;;;;;;36.22;20.42;;;;;;;0.82;82.22;101580.97;5055830;28;20056;-72
2021/03/03 03:44:52;;;;;;;34.05;20.55;;;;;;;0.36;82.55;101567.53;5054375;28;20032;-72
2021/03/03 03:47:26;;;;;;;35.38;20.08;;;;;;;0.55;81.61;101604.97;5053120;28;20114;-72
2021/03/03 03:49:52;;;;;;;40.95;24.42;;;;;;;0.52;82.47;101602.34;5052811;28;20065;-71
2021/03/03 03:52:23;;;;;;;37.42;23.30;;;;;;;0.88;82.28;101596.22;5052996;28;20064;-71
2021/03/03 03:54:51;;;;;;;42.88;25.15;;;;;;;0.78;81.56;101599.19;5054165;28;20521;-72
2021/03/03 03:57:39;;;;;;;44.85;25.42;;;;;;;0.84;81.79;101591.91;5054065;28;20033;-72
2021/03/03 04:00:09;;;;;;;43.90;25.80;;;;;;;0.65;82.13;101582.84;5052794;28;20025;-72
2021/03/03 04:02:48;;;;;;;38.38;23.58;;;;;;;0.79;81.75;101593.41;5052849;28;20029;-72
2021/03/03 04:05:31;;;;;;;38.78;22.58;;;;;;;0.76;81.36;101576.59;5052731;28;20033;-72
2021/03/03 04:08:22;;;;;;;37.53;21.65;;;;;;;0.62;82.38;101616.91;5052646;28;20086;-74
2021/03/03 04:10:48;;;;;;;36.25;22.13;;;;;;;0.43;83.02;101605.34;5052828;28;20040;-74
2021/03/03 04:13:29;;;;;;;39.38;23.05;;;;;;;1.43;81.36;101604.06;5053840;28;20540;-73
2021/03/03 04:16:04;;;;;;;39.50;22.25;;;;;;;0.79;82.45;101605.91;5050634;28;20085;-73
2021/03/03 04:18:46;;;;;;;37.35;23.20;;;;;;;0.70;82.92;101596.41;5052254;28;20024;-74
2021/03/03 04:21:16;;;;;;;;;;;;;;;1.03;81.80;101604.28;5052566;28;20024;-75
2021/03/03 04:23:44;;;;;;;36.00;20.75;;;;;;;2.59;83.94;101592.88;5052506;28;19921;-71
2021/03/03 04:26:37;;;;;;;39.80;23.77;;;;;;;2.62;85.82;101592.94;5051924;28;20033;-74
2021/03/03 04:29:08;;;;;;;39.85;24.08;;;;;;;3.06;80.54;101596.75;5052989;28;20029;-74
2021/03/03 04:31:39;;;;;;;40.05;24.10;;;;;;;1.18;78.88;101607.38;5051735;28;20017;-73
2021/03/03 04:34:04;;;;;;;38.58;22.05;;;;;;;0.73;80.11;101595.66;5052313;28;20032;-72
2021/03/03 04:36:30;;;;;;;39.20;22.50;;;;;;;0.59;81.21;101607.66;5072732;28;20532;-73
2021/03/03 04:38:57;;;;;;;49.85;26.75;;;;;;;0.79;81.28;101621.75;5072332;28;20025;-73
2021/03/03 04:41:35;;;;;;;51.08;26.75;;;;;;;0.73;81.25;101625.69;5072986;28;20029;-74
2021/03/03 04:44:16;;;;;;;52.67;28.73;;;;;;;0.51;81.96;101615.66;5055608;28;20063;-74
2021/03/03 04:46:45;;;;;;;65.87;35.23;;;;;;;0.34;81.21;101627.50;5053859;28;20481;-74
2021/03/03 04:49:18;;;;;;;71.32;39.47;;;;;;;0.50;82.40;101649.81;5054728;28;20119;-73
2021/03/03 04:51:44;;;;;;;60.55;34.35;;;;;;;0.43;82.21;101645.38;5072519;28;20028;-74
2021/03/03 04:54:11;;;;;;;55.38;32.00;;;;;;;0.69;83.08;101644.72;5071492;28;20036;-74
2021/03/03 04:56:36;;;;;;;59.08;32.22;;;;;;;0.74;81.17;101642.41;5072560;28;20111;-83
2021/03/03 04:59:16;;;;;;;65.97;37.83;;;;;;;0.73;81.43;101636.53;5055961;28;20501;-80
2021/03/03 05:01:42;;;;;;;59.40;33.42;;;;;;;1.29;82.94;101645.31;5054182;28;20040;-80
2021/03/03 05:04:19;;;;;;;56.95;31.17;;;;;;;0.90;81.07;101634.69;5040158;28;20116;-81
2021/03/03 05:06:57;;;;;;;85.28;43.25;;;;;;;0.65;82.97;101647.91;5054965;28;20024;-82
2021/03/03 05:09:40;;;;;;;89.10;41.95;;;;;;;2.53;81.28;101647.88;5055729;28;20047;-82
2021/03/03 05:12:25;;;;;;;72.07;41.08;;;;;;;2.00;75.88;101650.31;5072813;28;20029;-82
2021/03/03 05:15:02;;;;;;;79.70;43.53;;;;;;;2.05;78.62;101668.88;5055333;28;20020;-79
2021/03/03 05:17:39;;;;;;;78.50;43.10;;;;;;;2.02;76.53;101673.81;5067222;28;20059;-79
2021/03/03 05:20:07;;;;;;;77.35;44.28;;;;;;;1.40;78.72;101654.94;5075889;28;20028;-81
2021/03/03 05:22:45;;;;;;;71.80;41.75;;;;;;;1.47;78.40;101651.81;5076647;28;20115;-84
2021/03/03 05:25:13;;;;;;;68.97;39.78;;;;;;;2.55;75.87;101651.31;5082000;28;20058;-85
2021/03/03 05:27:40;;;;;;;60.63;33.08;;;;;;;4.30;69.25;101649.53;5078576;28;20024;-81
2021/03/03 05:30:13;;;;;;;56.97;32.92;;;;;;;4.56;65.46;101646.75;5078528;28;20028;-83
2021/03/03 05:36:29;;;;;;;72.60;42.60;;;;;;;5.50;64.12;101674.88;5094975;28;20055;-85
2021/03/03 05:39:05;;;;;;;84.15;47.20;;;;;;;6.89;59.34;101660.47;5075037;28;20078;-82
2021/03/03 05:41:49;;;;;;;121.05;64.70;;;;;;;6.71;60.08;101657.69;5092819;28;20031;-82
2021/03/03 05:44:14;;;;;;;119.15;63.33;;;;;;;6.93;58.80;101645.34;5075310;28;20047;-81
2021/03/03 05:46:43;;;;;;;156.60;78.18;;;;;;;7.82;56.11;101668.38;5098588;28;20033;-83
2021/03/03 05:49:19;;;;;;;157.45;80.05;;;;;;;7.22;56.95;101662.59;5086745;28;20028;-81
2021/03/03 05:52:06;;;;;;;94.25;53.70;;;;;;;7.41;56.85;101675.50;5092955;28;20039;-83
2021/03/03 05:58:01;;;;;;;85.35;51.70;;;;;;;6.45;59.50;101696.84;5093090;28;20088;-79
2021/03/03 06:00:48;;;;;;;87.47;54.45;;;;;;;6.91;58.86;101661.34;5092463;28;20500;-79
2021/03/03 06:03:40;;;;;;;142.00;78.90;;;;;;;5.81;62.48;101690.63;5092544;28;20084;-81
2021/03/03 06:09:27;;;;;;;132.98;73.70;;;;;;;4.94;66.58;101684.63;5092911;28;20051;-80
2021/03/03 06:12:35;;;;;;;136.68;83.72;;;;;;;4.19;68.89;101706.31;5074541;28;20020;-80
2021/03/03 06:18:24;;;;;;;108.70;66.25;;;;;;;4.98;65.75;101699.00;5092461;28;20195;-81
2021/03/03 06:21:12;;;;;;;120.55;73.35;;;;;;;4.84;66.78;101710.41;5074127;28;20055;-80
2021/03/03 06:27:05;;;;;;;136.20;84.57;;;;;;;4.83;67.90;101700.31;5092798;28;20054;-80
2021/03/03 06:30:17;;;;;;;115.90;73.40;;;;;;;5.10;67.78;101711.88;5074431;28;20032;-81
2021/03/03 06:33:36;;;;;;;165.32;64.78;;;;;;;4.29;68.94;101720.84;5092306;28;20039;-82
2021/03/03 06:36:28;;;;;;;64.20;33.00;;;;;;;4.01;72.75;101713.38;5074114;28;20036;-83
2021/03/03 06:39:33;;;;;;;118.28;55.22;;;;;;;6.10;64.84;101721.50;5074561;28;20520;-83
2021/03/03 06:42:31;;;;;;;89.93;47.83;;;;;;;6.16;65.51;101728.34;5074424;28;20517;-83
2021/03/03 06:45:29;;;;;;;61.63;36.55;;;;;;;6.82;64.15;101732.84;5074423;28;20035;-81
2021/03/03 06:48:42;;;;;;;86.13;43.83;;;;;;;5.81;66.57;101737.72;5092154;28;20028;-81
2021/03/03 06:51:51;;;;;;;77.10;41.20;;;;;;;6.93;64.10;101725.44;5074256;28;20028;-82
2021/03/03 06:54:44;;;;;;;84.28;43.92;;;;;;;7.54;62.04;101727.97;5092345;28;20485;-82
2021/03/03 06:57:14;;;;;;;65.35;37.67;;;;;;;6.81;62.54;101740.41;5074139;28;20059;-82
2021/03/03 07:00:24;;;;;;;76.45;42.55;;;;;;;7.57;60.30;101727.13;5073975;28;20059;-82
2021/03/03 07:03:25;;;;;;;73.53;45.67;;;;;;;7.46;60.41;101741.34;5092061;28;20034;-82
2021/03/03 07:06:07;;;;;;;119.07;73.53;;;;;;;8.14;59.77;101737.09;5074081;28;20516;-82
2021/03/03 07:08:59;;;;;;;87.50;54.38;;;;;;;7.96;59.69;101727.63;5091857;28;20493;-81
2021/03/03 07:11:52;;;;;;;78.88;52.03;;;;;;;8.32;58.98;101738.13;5092176;28;20050;-80
2021/03/03 07:14:36;;;;;;;76.65;47.97;;;;;;;8.76;58.57;101725.84;5074231;28;20032;-81
2021/03/03 07:17:38;;;;;;;74.72;50.53;;;;;;;8.40;60.31;101730.59;5091997;28;20027;-81
2021/03/03 07:24:10;;;;;;;84.82;53.50;;;;;;;9.78;56.32;101724.72;5096243;28;20111;-81
2021/03/03 07:29:58;;;;;;;100.93;63.80;;;;;;;10.01;57.17;101718.88;5095466;28;20085;-80
2021/03/03 07:33:02;;;;;;;85.57;54.33;;;;;;;10.29;55.63;101714.72;5077863;28;20103;-78
2021/03/03 07:35:28;;;;;;;72.43;46.13;;;;;;;10.68;54.78;101693.53;5095190;28;20123;-78
2021/03/03 07:38:41;;;;;;;61.45;41.42;;;;;;;10.05;56.46;101712.94;5095135;28;20060;-79
2021/03/03 07:41:26;;;;;;;57.08;39.05;;;;;;;10.09;57.56;101716.34;5095438;28;20071;-78
2021/03/03 07:43:54;;;;;;;53.35;39.38;;;;;;;10.20;57.00;101700.28;5095033;28;20089;-79
2021/03/03 07:47:03;;;;;;;63.63;43.45;;;;;;;10.51;56.35;101708.81;5095012;28;20527;-80
2021/03/03 07:49:38;;;;;;;72.32;49.72;;;;;;;10.96;57.01;101700.28;5076749;28;20036;-80
2021/03/03 07:52:18;;;;;;;60.10;41.15;;;;;;;11.17;55.07;101695.16;5095001;28;20039;-80
2021/03/03 07:55:02;;;;;;;59.83;39.45;;;;;;;11.69;52.65;101698.38;5095552;28;20036;-82
2021/03/03 07:57:59;;;;;;;59.10;38.15;;;;;;;12.20;52.96;101701.47;5077006;28;20024;-82
2021/03/03 08:00:49;;;;;;;44.28;31.73;;;;;;;12.11;52.54;101699.00;5094837;28;20032;-81
2021/03/03 08:03:40;;;;;;;42.55;26.50;;;;;;;12.59;51.83;101699.47;5076716;28;20493;-83
2021/03/03 08:09:27;;;;;;;33.05;20.50;;;;;;;12.88;50.39;101698.34;5094482;28;20520;-81
2021/03/03 08:15:36;;;;;;;28.52;19.55;;;;;;;13.69;48.94;101711.94;5094584;28;20039;-80
2021/03/03 08:18:27;;;;;;;25.20;17.10;;;;;;;13.48;49.77;101709.66;5076851;28;20028;-78
2021/03/03 08:24:44;;;;;;;22.38;15.82;;;;;;;13.72;43.93;101704.25;5095471;28;20074;-80
2021/03/03 08:27:39;;;;;;;23.80;16.33;;;;;;;13.80;43.42;101712.66;5072680;28;20122;-79
2021/03/03 08:33:30;;;;;;;16.77;10.35;;;;;;;14.24;41.26;101690.72;5094590;28;20046;-79
2021/03/03 08:36:25;;;;;;;16.10;10.98;;;;;;;14.11;41.60;101707.09;5094508;28;20150;-79
2021/03/03 08:39:30;;;;;;;15.98;10.00;;;;;;;14.56;39.76;101702.13;5076115;28;20438;-81
2021/03/03 08:42:31;;;;;;;14.52;8.73;;;;;;;14.90;39.54;101699.84;5094163;28;20028;-80
2021/03/03 08:48:29;;;;;;;17.25;10.60;;;;;;;14.54;39.57;101693.63;5093833;28;20115;-80
2021/03/03 08:54:44;;;;;;;17.15;10.98;;;;;;;14.14;39.90;101694.28;5094292;28;20052;-81
2021/03/03 08:57:37;;;;;;;15.30;9.98;;;;;;;14.29;40.11;101692.34;5022542;28;20111;-81
2021/03/03 09:03:25;;;;;;;14.30;10.50;;;;;;;14.57;39.32;101693.59;5093383;28;20130;-80
2021/03/03 09:06:21;;;;;;;14.20;10.65;;;;;;;14.85;38.53;101691.41;5093247;28;20349;-79
2021/03/03 09:08:57;;;;;;;18.25;11.40;;;;;;;14.45;38.40;101688.69;5075243;28;20028;-79
2021/03/03 09:11:24;;;;;;;19.13;11.93;;;;;;;14.95;38.62;101677.56;5075542;28;20031;-79
2021/03/03 09:13:54;;;;;;;14.32;10.50;;;;;;;14.72;39.75;101690.78;5093637;28;20028;-79
2021/03/03 09:17:05;;;;;;;14.60;9.35;;;;;;;14.65;39.47;101685.78;5093401;28;20047;-79
2021/03/03 09:19:36;;;;;;;15.95;10.07;;;;;;;15.30;39.25;101689.69;5075319;28;20067;-80
2021/03/03 09:25:24;;;;;;;15.95;9.45;;;;;;;14.85;38.39;101681.16;5093360;28;20570;-79
2021/03/03 09:31:29;;;;;;;17.77;10.60;;;;;;;16.16;37.59;101672.44;5093367;28;20051;-80
2021/03/03 09:34:39;;;;;;;14.52;9.55;;;;;;;16.27;36.87;101685.88;5074869;28;20024;-78
2021/03/03 09:40:39;;;;;;;13.02;9.38;;;;;;;16.20;37.14;101676.63;5052529;28;20537;-79
2021/03/03 09:46:27;;;;;;;15.40;10.07;;;;;;;15.37;36.89;101666.47;5053118;28;20071;-81
2021/03/03 09:52:14;;;;;;;17.65;10.25;;;;;;;15.76;35.91;101674.22;5052610;28;20422;-80
2021/03/03 09:55:27;;;;;;;17.02;10.43;;;;;;;16.42;35.91;101673.50;5051383;28;20029;-81
2021/03/03 09:58:21;;;;;;;15.30;10.75;;;;;;;16.90;35.17;101675.72;5052279;28;20043;-81
2021/03/03 10:00:47;;;;;;;14.52;9.25;;;;;;;16.79;34.79;101675.16;5065226;28;20020;-81
2021/03/03 10:06:34;;;;;;;12.82;9.77;;;;;;;16.09;35.87;101664.03;5052163;28;20032;-82
2021/03/03 10:09:48;;;;;;;16.60;9.80;;;;;;;16.59;34.89;101673.13;5051957;28;20025;-82
2021/03/03 10:12:20;;;;;;;13.23;9.48;;;;;;;15.61;36.30;101668.56;5050921;28;20070;-81
2021/03/03 10:18:09;;;;;;;13.55;8.90;;;;;;;15.79;36.22;101666.44;5052099;28;20040;-80
2021/03/03 10:21:15;;;;;;;16.52;10.18;;;;;;;17.16;34.60;101657.88;5051456;28;20041;-81
2021/03/03 10:23:52;;;;;;;15.50;10.77;;;;;;;17.55;32.81;101654.19;5050832;28;20033;-81
2021/03/03 10:26:45;;;;;;;15.15;10.20;;;;;;;17.75;32.86;101654.41;5051005;28;20029;-81
2021/03/03 10:29:57;;;;;;;13.52;8.75;;;;;;;17.18;34.10;101653.53;5051094;28;20494;-79
2021/03/03 10:32:42;;;;;;;11.20;8.38;;;;;;;17.48;33.37;101655.22;5052381;28;20059;-79
2021/03/03 10:39:00;;;;;;;10.90;7.93;;;;;;;17.73;33.51;101637.34;5088407;28;20079;-81
2021/03/03 10:41:37;;;;;;;13.98;8.98;;;;;;;18.78;31.69;101623.53;5092167;28;20040;-82
2021/03/03 10:44:08;;;;;;;19.30;13.05;;;;;;;17.53;33.08;101621.69;5092014;28;20051;-82
2021/03/03 10:46:44;;;;;;;13.05;8.57;;;;;;;18.01;31.68;101594.41;5092033;28;20028;-82
2021/03/03 10:49:18;;;;;;;11.13;8.57;;;;;;;18.10;31.89;101607.81;5096063;28;20028;-82
2021/03/03 10:51:43;;;;;;;18.45;10.88;;;;;;;18.14;32.41;101606.00;5099119;28;20024;-81
2021/03/03 10:54:09;;;;;;;12.32;9.63;;;;;;;18.23;32.30;101595.38;5103563;28;20039;-83
2021/03/03 10:56:37;;;;;;;14.02;9.80;;;;;;;17.97;32.12;101583.38;5086343;28;20032;-81
2021/03/03 10:59:25;;;;;;;15.13;11.25;;;;;;;18.44;32.98;101602.41;5103802;28;20497;-81
2021/03/03 11:02:02;;;;;;;15.93;11.25;;;;;;;17.89;32.66;101577.63;5106990;28;20066;-82
2021/03/03 11:04:45;;;;;;;12.82;8.57;;;;;;;17.70;31.96;101593.72;5085520;28;20123;-81
2021/03/03 11:07:13;;;;;;;13.63;9.00;;;;;;;18.61;31.28;101587.22;5102416;28;20043;-83
2021/03/03 11:09:42;;;;;;;16.05;10.80;;;;;;;19.07;30.80;101585.56;5097329;28;20036;-81
2021/03/03 11:12:21;;;;;;;15.93;9.52;;;;;;;19.38;30.12;101566.31;5096528;28;20028;-79
2021/03/03 11:15:23;;;;;;;11.50;8.30;;;;;;;18.35;32.85;101583.81;5096087;28;20035;-79
2021/03/03 11:17:49;;;;;;;15.27;9.77;;;;;;;18.63;32.12;101562.25;5095633;28;20052;-81
2021/03/03 11:23:36;;;;;;;11.05;8.15;;;;;;;19.61;29.86;101562.84;5109223;28;20066;-81
2021/03/03 11:26:23;;;;;;;11.70;8.25;;;;;;;19.68;30.49;101564.28;5101163;28;20039;-83
2021/03/03 11:32:38;;;;;;;12.90;8.52;;;;;;;19.29;31.50;101553.75;5096082;28;20093;-81
2021/03/03 11:35:12;;;;;;;14.10;10.05;;;;;;;18.74;31.57;101548.97;5095436;28;20050;-81
2021/03/03 11:37:37;;;;;;;14.15;9.70;;;;;;;19.28;31.53;101544.31;5093804;28;20126;-80
2021/03/03 11:40:22;;;;;;;12.48;9.25;;;;;;;19.17;32.02;101554.22;5095302;28;20036;-79
2021/03/03 11:46:09;;;;;;;13.82;9.82;;;;;;;19.94;30.31;101530.50;5095239;28;20077;-79
2021/03/03 11:48:50;;;;;;;19.35;12.68;;;;;;;19.67;30.19;101539.34;5095573;28;20028;-80
2021/03/03 11:51:18;;;;;;;15.60;11.30;;;;;;;18.22;31.85;101524.19;5094831;28;20032;-80
2021/03/03 11:54:31;;;;;;;16.92;12.13;;;;;;;19.03;31.70;101534.09;5095252;28;20036;-80
2021/03/03 11:57:25;;;;;;;25.30;16.52;;;;;;;19.19;31.52;101531.78;5076788;28;20066;-81
2021/03/03 12:00:13;;;;;;;14.95;12.10;;;;;;;20.47;29.39;101529.06;5095090;28;20035;-79
2021/03/03 12:06:00;;;;;;;15.30;11.15;;;;;;;18.49;33.15;101530.97;5094543;28;20039;-81
2021/03/03 12:08:52;;;;;;;15.57;11.30;;;;;;;19.81;30.37;101524.13;5094873;28;20020;-79
2021/03/03 12:11:19;;;;;;;23.98;14.23;;;;;;;18.07;31.98;101496.38;5094900;28;20032;-79
2021/03/03 12:17:13;;;;;;;22.13;15.10;;;;;;;19.43;31.51;101517.13;5095145;28;20073;-79
2021/03/03 12:20:00;;;;;;;12.05;8.77;;;;;;;19.43;31.29;101517.94;5094305;28;20161;-79
2021/03/03 12:22:52;;;;;;;12.85;8.30;;;;;;;19.33;31.60;101516.63;5076602;28;20032;-79
2021/03/03 12:25:17;;;;;;;12.27;8.43;;;;;;;19.31;30.64;101504.69;5076113;28;20031;-77
2021/03/03 12:31:04;;;;;;;13.30;8.73;;;;;;;18.22;33.12;101498.44;5094399;28;20133;-78
2021/03/03 12:34:12;;;;;;;13.88;9.95;;;;;;;19.24;31.65;101505.81;5076231;28;20255;-78
2021/03/03 12:36:52;;;;;;;16.48;10.98;;;;;;;19.66;30.61;101486.06;5076510;28;20413;-79
2021/03/03 12:39:26;;;;;;;15.93;10.77;;;;;;;19.00;32.70;101500.72;5073123;28;20071;-78
2021/03/03 12:42:17;;;;;;;12.15;8.30;;;;;;;18.53;32.55;101501.63;5073706;28;20147;-79
2021/03/03 12:44:52;;;;;;;13.30;9.40;;;;;;;19.87;31.53;101482.59;5073905;28;20043;-78
2021/03/03 12:47:18;;;;;;;12.95;9.43;;;;;;;19.89;31.13;101486.78;5074262;28;20025;-78
2021/03/03 12:53:05;;;;;;;13.50;9.63;;;;;;;19.67;31.02;101474.81;5073415;28;20043;-80
2021/03/03 12:55:38;;;;;;;13.63;9.40;;;;;;;19.29;31.46;101478.09;5072757;28;20271;-79
2021/03/03 12:58:15;;;;;;;16.80;10.90;;;;;;;19.48;31.24;101476.50;5073426;28;20567;-80
2021/03/03 13:00:40;;;;;;;15.80;11.07;;;;;;;20.09;30.70;101465.28;5073998;28;20025;-80
2021/03/03 13:06:27;;;;;;;20.45;14.60;;;;;;;19.51;31.82;101484.13;5073767;28;20094;-79
2021/03/03 13:12:12;;;;;;;13.10;8.30;;;;;;;18.71;32.39;101490.66;5074307;28;20040;-79
2021/03/03 13:15:13;;;;;;;14.57;11.15;;;;;;;19.31;32.23;101490.06;5072716;28;20027;-80
2021/03/03 13:21:00;;;;;;;19.07;12.70;;;;;;;18.85;31.66;101452.31;5073525;28;20074;-80
2021/03/03 13:26:47;;;;;;;16.38;11.32;;;;;;;19.04;31.18;101473.06;5073209;28;20520;-79
2021/03/03 13:29:13;;;;;;;15.13;9.75;;;;;;;19.44;31.49;101465.47;5072531;28;20020;-80
2021/03/03 13:31:46;;;;;;;15.07;10.98;;;;;;;19.08;31.53;101463.47;5072862;28;20032;-81
2021/03/03 13:34:41;;;;;;;15.27;11.70;;;;;;;19.24;30.74;101464.53;5073564;28;20036;-79
2021/03/03 13:37:32;;;;;;;14.35;9.00;;;;;;;19.19;32.14;101466.47;5072467;28;20137;-79
2021/03/03 13:43:20;;;;;;;13.85;9.30;;;;;;;18.78;32.07;101437.13;5053222;28;20047;-78
2021/03/03 13:45:53;;;;;;;16.30;10.00;;;;;;;18.52;32.52;101445.03;5053590;28;20029;-79
2021/03/03 13:51:41;;;;;;;14.95;9.73;;;;;;;18.53;33.19;101447.53;5053324;28;20072;-80
2021/03/03 13:54:25;;;;;;;13.52;8.90;;;;;;;19.08;32.82;101435.09;5051935;28;20049;-81
2021/03/03 13:57:18;;;;;;;13.75;8.45;;;;;;;17.51;35.01;101451.16;5052874;28;20029;-81
2021/03/03 13:59:46;;;;;;;13.52;8.57;;;;;;;17.58;35.19;101429.47;5051605;28;20037;-82
2021/03/03 14:02:17;;;;;;;14.80;9.63;;;;;;;17.10;36.24;101417.28;5053228;28;20017;-79